Stunt Ranch Reserve, Santa Monica Mtns, California Weather observations

Data are for 10 minute period ending at time listed.
 Day   Time   Solar   Ave.   Ave.  Ave.  Vector  Max.   Baro.   Total    
  of    of     Rad.   Air    Rel.  Wind   Wind   Wind  Press.  Precip.   
Year   Day            Temp.  Hum.  Speed  Dir.   Gust                    
2016   (PST)  Kw/m2    F      %     mph   deg.    mph    mb.     in.     
-------------------------------------------------------------------------
 273   15:10   0.44   90.9    23    5.6   235    11.4   970.5    0.00 
 273   15:20   0.41   91.7    22    4.9   245     9.9   970.2    0.00 
 273   15:30   0.38   91.9    22    4.6   250    12.0   970.2    0.00 
 273   15:40   0.34   92.0    22    4.8   265    11.8   970.2    0.00 
 273   15:50   0.31   92.9    21    2.4   280     7.7   970.2    0.00 
 273   16:00   0.28   92.7    22    2.1   307     8.7   970.5    0.00 
 273   16:10   0.24   92.7    22    2.2   294     8.9   970.5    0.00 
 273   16:20   0.21   91.9    23    4.3   315    10.7   970.2    0.00 
 273   16:30   0.18   90.3    25    3.0   306     9.6   970.5    0.00 
 273   16:40   0.15   88.7    26    2.1   308     8.3   970.5    0.00 
 273   16:50   0.12   86.6    28    2.2   300     9.6   970.5    0.00 
 273   17:00   0.09   85.3    29    3.0   307     8.6   970.5    0.00 
 273   17:10   0.07   84.2    30    2.4   306     8.5   970.5    0.00 
 273   17:20   0.04   83.1    31    3.4   283     8.3   970.5    0.00 
 273   17:30   0.02   81.8    32    1.5   296     6.4   970.2    0.00 
 273   17:40   0.01   80.4    34    2.0   278     5.8   970.2    0.00 
 273   17:50   0.00   79.5    35    1.1   254     4.5   969.9    0.00 
 273   18:00   0.00   78.6    36    1.5   235     3.7   969.9    0.00 
 273   18:10   0.00   78.0    37    2.1   236     3.5   969.9    0.00 
 273   18:20   0.00   77.5    37    2.1   233     3.4   969.9    0.00 
 273   18:30   0.00   76.5    38    1.4   238     2.6   969.9    0.00 
 273   18:40   0.00   76.1    38    1.3   222     2.4   969.9    0.00 
 273   18:50   0.00   76.2    38    1.0   257     1.7   969.9    0.00 
 273   19:00   0.00   76.4    37    0.9   237     2.7   970.2    0.00 
 273   19:10   0.00   76.4    37    2.2   252     4.4   970.2    0.00 
 273   19:20   0.00   76.2    37    1.0   277     1.8   970.2    0.00 
 273   19:30   0.00   76.2    38    0.2   226     1.2   970.5    0.00 
 273   19:40   0.00   75.7    39    0.5   188     2.3   970.5    0.00 
 273   19:50   0.00   75.8    38    0.8   225     1.8   970.5    0.00 
 273   20:00   0.00   76.1    38    2.1   232     4.9   970.9    0.00 
 273   20:10   0.00   76.2    37    3.4   230     5.5   970.9    0.00 
 273   20:20   0.00   76.4    37    3.7   233     6.3   970.9    0.00 
 273   20:30   0.00   76.2    37    3.8   232     5.6   970.9    0.00 
 273   20:40   0.00   76.1    37    3.2   236     5.8   970.9    0.00 
 273   20:50   0.00   76.0    37    2.7   220     4.5   970.9    0.00 
 273   21:00   0.00   76.0    37    3.4   218     6.6   970.9    0.00 
 273   21:10   0.00   76.2    36    3.5   221     5.3   970.9    0.00 
 273   21:20   0.00   75.9    36    2.6   234     4.2   970.9    0.00 
 273   21:30   0.00   75.2    37    2.2   241     4.3   970.9    0.00 
 273   21:40   0.00   74.9    37    0.6   242     2.1   970.9    0.00 
 273   21:50   0.00   74.7    37    1.3   166     2.3   971.2    0.00 
 273   22:00   0.00   75.3    36    0.2   141     1.6   971.2    0.00 
 273   22:10   0.00   75.1    37    0.4   307     1.7   971.2    0.00 
 273   22:20   0.00   74.3    38    1.4   139     3.1   971.2    0.00 
 273   22:30   0.00   73.7    38    2.9   134     4.1   971.2    0.00 
 273   22:40   0.00   73.8    38    1.9   158     3.1   971.2    0.00 
 273   22:50   0.00   74.0    38    0.7   180     1.8   971.2    0.00 
 273   23:00   0.00   73.5    40    1.5   158     2.4   971.2    0.00 
 273   23:10   100.00  99999.0   99999  99999.0   99999   99999.0   99999.0   99999.00 
 273   23:20   100.00  99999.0   99999  99999.0   99999   99999.0   99999.0   99999.00 
 273   23:30   100.00  99999.0   99999  99999.0   99999   99999.0   99999.0   99999.00 
 273   23:40   100.00  99999.0   99999  99999.0   99999   99999.0   99999.0   99999.00 
 273   23:50   100.00  99999.0   99999  99999.0   99999   99999.0   99999.0   99999.00 
 274    0:00   0.00   70.6    43    0.8   109     2.0   971.2    0.00 
 274    0:10   0.00   70.8    42    0.9   120     1.7   971.2    0.00 
 274    0:20   0.00   71.2    42    0.8   267     1.9   971.2    0.00 
 274    0:30   0.00   70.6    43    1.7   148     3.2   971.2    0.00 
 274    0:40   0.00   70.9    43    2.4   181     3.8   971.2    0.00 
 274    0:50   0.00   71.5    42    2.7   180     3.7   971.2    0.00 
 274    1:00   0.00   72.0    42    2.7   175     4.2   971.2    0.00 
 274    1:10   0.00   71.8    42    2.2   225     3.9   971.2    0.00 
 274    1:20   0.00   71.5    42    0.3     3     1.7   971.2    0.00 
 274    1:30   0.00   70.4    44    0.3   126     1.8   971.6    0.00 
 274    1:40   0.00   69.2    46    0.5   295     2.0   971.2    0.00 
 274    1:50   0.00   69.0    46    1.3   153     2.5   971.2    0.00 
 274    2:00   0.00   69.5    45    1.6   173     3.1   971.2    0.00 
 274    2:10   0.00   70.4    43    0.5   174     2.0   971.2    0.00 
 274    2:20   0.00   71.1    42    1.5   180     2.2   971.2    0.00 
 274    2:30   0.00   70.6    43    1.7   278     3.1   971.2    0.00 
 274    2:40   0.00   68.9    45    1.7   191     2.9   971.2    0.00 
 274    2:50   0.00   68.7    45    1.4   167     2.1   971.2    0.00 
 274    3:00   0.00   69.1    44    1.0   266     2.1   971.2    0.00 
 274    3:10   0.00   68.4    45    0.3    10     1.0   971.2    0.00 
 274    3:20   0.00   68.4    45    0.9   256     2.2   971.2    0.00 
 274    3:30   0.00   68.6    45    0.6   163     1.7   971.2    0.00 
 274    3:40   0.00   68.3    45    0.4   326     1.5   971.2    0.00 
 274    3:50   0.00   68.1    46    0.4    54     1.5   971.2    0.00 
 274    4:00   0.00   68.4    45    0.5   325     2.1   971.2    0.00 
 274    4:10   0.00   68.4    45    0.8   304     2.2   970.9    0.00 
 274    4:20   0.00   68.4    46    0.9   305     2.3   970.9    0.00 
 274    4:30   0.00   68.3    46    0.1   296     1.1   971.2    0.00 
 274    4:40   0.00   68.1    47    0.0   288     0.9   971.2    0.00 
 274    4:50   0.00   68.1    47    1.0   131     2.4   971.2    0.00 
 274    5:00   0.00   68.3    47    0.4   338     1.6   971.2    0.00 
 274    5:10   0.00   68.9    46    0.0   323     0.7   971.2    0.00 
 274    5:20   0.00   69.0    46    0.2   326     0.8   971.2    0.00 
 274    5:30   0.00   68.9    46    0.3   299     1.0   971.2    0.00 
 274    5:40   0.00   68.3    47    0.6   147     3.1   971.2    0.00 
 274    5:50   0.00   68.4    47    0.9   167     3.4   971.2    0.00 
 274    6:00   0.01   68.8    46    0.5   241     1.4   971.2    0.00 
 274    6:10   0.01   69.5    45    0.5   268     1.7   971.2    0.00 
 274    6:20   0.01   69.7    45    0.8   296     1.5   971.2    0.00 
 274    6:30   0.01   69.4    46    0.7   348     1.4   971.6    0.00 
 274    6:40   0.02   69.0    46    0.6     3     1.1   971.6    0.00 
 274    6:50   0.06   69.0    46    0.0     0     0.0   971.6    0.00 
 274    7:00   0.16   72.7    41    0.4    73     1.5   971.6    0.00 
 274    7:10   0.19   76.2    38    0.6   102     1.4   971.6    0.00 
 274    7:20   0.23   77.3    37    0.5    67     1.5   971.6    0.00 
 274    7:30   0.26   78.1    36    1.2    90     2.6   971.6    0.00 
 274    7:40   0.29   79.1    35    1.0    86     2.2   971.6    0.00 
 274    7:50   0.33   80.9    33    1.1    67     2.0   971.2    0.00 
 274    8:00   0.36   81.9    32    1.1    25     2.0   971.2    0.00 
 274    8:10   0.39   81.5    32    0.8    10     2.3   971.2    0.00 
 274    8:20   0.42   82.6    31    0.8   318     1.7   971.2    0.00 
 274    8:30   0.46   83.0    30    1.2   290     2.0   971.6    0.00 
 274    8:40   0.49   86.3    27    1.7   290     2.6   971.6    0.00 
 274    8:50   0.52   87.9    26    2.0   284     3.1   971.6    0.00 
 274    9:00   0.54   88.7    26    1.6   282     2.8   971.6    0.00 
 274    9:10   0.57   88.6    25    1.9   292     3.4   971.9    0.00 
 274    9:20   0.59   89.6    24    3.3   272     5.0   971.9    0.00 
 274    9:30   0.62   88.5    25    3.2   282     5.8   972.2    0.00 
 274    9:40   0.64   90.7    23    3.7   277     6.4   972.2    0.00 
 274    9:50   0.66   91.3    22    2.9   279     5.8   972.2    0.00 
 274   10:00   0.68   90.1    23    2.6   280     6.6   972.2    0.00 
 274   10:10   0.70   91.4    22    3.0   284     6.2   971.9    0.00 
 274   10:20   0.72   91.4    23    3.5   277     6.4   971.9    0.00 
 274   10:30   0.73   92.8    23    3.2   283     6.6   971.9    0.00 
 274   10:40   0.74   92.5    23    2.9   298     8.4   971.9    0.00 
 274   10:50   0.75   92.8    23    3.9   285     8.4   971.9    0.00 
 274   11:00   0.77   93.7    22    3.6   290     8.8   971.6    0.00 
 274   11:10   0.77   93.6    23    3.6   284     8.3   971.6    0.00 
 274   11:20   0.78   93.3    23    3.0   290     7.8   971.6    0.00 
 274   11:30   0.78   93.8    23    3.8   288     8.1   971.2    0.00 
 274   11:40   0.78   93.7    22    3.5   292     9.3   971.2    0.00 
 274   11:50   0.78   94.5    22    3.6   291     9.1   971.2    0.00 
 274   12:00   0.78   94.7    22    4.0   298     9.4   970.9    0.00 
 274   12:10   0.78   93.0    23    2.9   312     7.7   970.9    0.00 
 274   12:20   0.78   94.3    21    3.8   290    11.7   970.9    0.00 
 274   12:30   0.77   94.5    21    3.0   283    11.0   970.5    0.00 
 274   12:40   0.76   95.1    21    2.4   294    10.3   970.5    0.00 
 274   12:50   0.71   94.5    21    2.1   317     9.7   970.2    0.00 
 274   13:00   0.74   94.7    21    2.5   294     9.1   970.2    0.00 
 274   13:10   0.72   95.7    20    1.5   299     5.6   969.9    0.00 
 274   13:20   0.71   94.7    21    3.3   294    10.6   969.9    0.00 
 274   13:30   0.69   94.8    21    1.8   290     8.1   969.9    0.00 
 274   13:40   0.67   94.0    22    2.8   294     9.7   969.5    0.00 
 274   13:50   0.65   93.6    22    3.0   300    10.7   969.5    0.00 
 274   14:00   0.63   94.4    22    2.6   287     8.7   969.5    0.00 
 274   14:10   0.61   94.3    22    1.9   290     8.8   969.5    0.00 
 274   14:20   0.58   94.9    22    2.6   287     9.9   969.5    0.00 
 274   14:30   0.56   94.6    21    2.2   308     8.3   969.5    0.00 
 274   14:40   0.53   93.9    22    2.0   300     8.8   969.5    0.00 
 274   14:50   0.50   92.6    22    3.1   277    10.0   969.2    0.00 
 274   15:00   0.47   91.7    23    2.7   292     9.1   969.2    0.00 

Return to Stunt Ranch Reserve graphs page.


Western Regional Climate Center,wrcc@dri.edu